sensor_id;sensor_type;location;lat;lon;timestamp;P1;P2;P0
32503;PMS5003;18953;45.930;13.640;2022-11-15T00:00:52;32;30;
32503;PMS5003;18953;45.930;13.640;2022-11-15T00:06:08;32;28;
32503;PMS5003;18953;45.930;13.640;2022-11-15T00:11:24;34;31;
32503;PMS5003;18953;45.930;13.640;2022-11-15T00:16:41;35;31;
32503;PMS5003;18953;45.930;13.640;2022-11-15T00:21:58;33;30;
32503;PMS5003;18953;45.930;13.640;2022-11-15T00:27:14;35;32;
32503;PMS5003;18953;45.930;13.640;2022-11-15T00:32:31;36;32;
32503;PMS5003;18953;45.930;13.640;2022-11-15T00:37:47;36;32;
32503;PMS5003;18953;45.930;13.640;2022-11-15T00:43:04;30;27;
32503;PMS5003;18953;45.930;13.640;2022-11-15T00:48:20;31;30;
32503;PMS5003;18953;45.930;13.640;2022-11-15T00:53:37;28;26;
32503;PMS5003;18953;45.930;13.640;2022-11-15T00:58:53;30;26;
32503;PMS5003;18953;45.930;13.640;2022-11-15T01:04:10;25;23;
32503;PMS5003;18953;45.930;13.640;2022-11-15T01:09:26;26;22;
32503;PMS5003;18953;45.930;13.640;2022-11-15T01:14:43;21;20;
32503;PMS5003;18953;45.930;13.640;2022-11-15T01:19:59;23;20;
32503;PMS5003;18953;45.930;13.640;2022-11-15T01:25:16;23;22;
32503;PMS5003;18953;45.930;13.640;2022-11-15T01:30:32;22;20;
32503;PMS5003;18953;45.930;13.640;2022-11-15T01:35:48;24;22;
32503;PMS5003;18953;45.930;13.640;2022-11-15T01:41:06;24;22;
32503;PMS5003;18953;45.930;13.640;2022-11-15T01:46:25;25;22;
32503;PMS5003;18953;45.930;13.640;2022-11-15T01:51:38;24;19;
32503;PMS5003;18953;45.930;13.640;2022-11-15T01:56:55;24;23;
32503;PMS5003;18953;45.930;13.640;2022-11-15T02:02:11;24;20;
32503;PMS5003;18953;45.930;13.640;2022-11-15T02:07:28;25;23;
32503;PMS5003;18953;45.930;13.640;2022-11-15T02:12:44;27;20;
32503;PMS5003;18953;45.930;13.640;2022-11-15T02:18:09;23;22;
32503;PMS5003;18953;45.930;13.640;2022-11-15T02:28:43;26;23;
32503;PMS5003;18953;45.930;13.640;2022-11-15T02:33:59;25;21;
32503;PMS5003;18953;45.930;13.640;2022-11-15T02:39:15;23;20;
32503;PMS5003;18953;45.930;13.640;2022-11-15T02:44:30;17;17;
32503;PMS5003;18953;45.930;13.640;2022-11-15T02:49:47;21;20;
32503;PMS5003;18953;45.930;13.640;2022-11-15T02:55:03;19;18;
32503;PMS5003;18953;45.930;13.640;2022-11-15T03:00:19;16;16;
32503;PMS5003;18953;45.930;13.640;2022-11-15T03:05:37;19;18;
32503;PMS5003;18953;45.930;13.640;2022-11-15T03:10:55;21;19;
32503;PMS5003;18953;45.930;13.640;2022-11-15T03:16:09;23;20;
32503;PMS5003;18953;45.930;13.640;2022-11-15T03:21:25;24;22;
32503;PMS5003;18953;45.930;13.640;2022-11-15T03:26:41;20;19;
32503;PMS5003;18953;45.930;13.640;2022-11-15T03:31:58;18;17;
32503;PMS5003;18953;45.930;13.640;2022-11-15T03:37:14;20;17;
32503;PMS5003;18953;45.930;13.640;2022-11-15T03:42:32;18;17;
32503;PMS5003;18953;45.930;13.640;2022-11-15T03:47:48;18;17;
32503;PMS5003;18953;45.930;13.640;2022-11-15T03:53:04;17;16;
32503;PMS5003;18953;45.930;13.640;2022-11-15T03:58:20;16;14;
32503;PMS5003;18953;45.930;13.640;2022-11-15T04:03:37;18;16;
32503;PMS5003;18953;45.930;13.640;2022-11-15T04:08:53;18;17;
32503;PMS5003;18953;45.930;13.640;2022-11-15T04:14:09;16;16;
32503;PMS5003;18953;45.930;13.640;2022-11-15T04:19:26;19;17;
32503;PMS5003;18953;45.930;13.640;2022-11-15T04:24:42;21;19;
32503;PMS5003;18953;45.930;13.640;2022-11-15T04:29:59;18;18;
32503;PMS5003;18953;45.930;13.640;2022-11-15T04:35:15;20;17;
32503;PMS5003;18953;45.930;13.640;2022-11-15T04:40:32;19;17;
32503;PMS5003;18953;45.930;13.640;2022-11-15T04:45:48;17;16;
32503;PMS5003;18953;45.930;13.640;2022-11-15T04:51:05;17;15;
32503;PMS5003;18953;45.930;13.640;2022-11-15T04:56:21;17;16;
32503;PMS5003;18953;45.930;13.640;2022-11-15T05:01:38;18;17;
32503;PMS5003;18953;45.930;13.640;2022-11-15T05:06:54;20;17;
32503;PMS5003;18953;45.930;13.640;2022-11-15T05:12:11;16;15;
32503;PMS5003;18953;45.930;13.640;2022-11-15T05:17:27;16;15;
32503;PMS5003;18953;45.930;13.640;2022-11-15T05:22:44;15;15;
32503;PMS5003;18953;45.930;13.640;2022-11-15T05:28:02;18;17;
32503;PMS5003;18953;45.930;13.640;2022-11-15T05:33:18;17;17;
32503;PMS5003;18953;45.930;13.640;2022-11-15T05:38:35;17;17;
32503;PMS5003;18953;45.930;13.640;2022-11-15T05:43:51;18;16;
32503;PMS5003;18953;45.930;13.640;2022-11-15T05:49:09;20;17;
32503;PMS5003;18953;45.930;13.640;2022-11-15T05:54:24;18;17;
32503;PMS5003;18953;45.930;13.640;2022-11-15T05:59:41;20;17;
32503;PMS5003;18953;45.930;13.640;2022-11-15T06:04:57;19;18;
32503;PMS5003;18953;45.930;13.640;2022-11-15T06:10:14;19;17;
32503;PMS5003;18953;45.930;13.640;2022-11-15T06:15:31;19;17;
32503;PMS5003;18953;45.930;13.640;2022-11-15T06:20:47;18;17;
32503;PMS5003;18953;45.930;13.640;2022-11-15T06:26:04;20;18;
32503;PMS5003;18953;45.930;13.640;2022-11-15T06:31:20;23;18;
32503;PMS5003;18953;45.930;13.640;2022-11-15T06:36:36;22;19;
32503;PMS5003;18953;45.930;13.640;2022-11-15T06:41:53;22;20;
32503;PMS5003;18953;45.930;13.640;2022-11-15T06:47:09;24;20;
32503;PMS5003;18953;45.930;13.640;2022-11-15T06:52:26;24;23;
32503;PMS5003;18953;45.930;13.640;2022-11-15T06:57:46;27;23;
32503;PMS5003;18953;45.930;13.640;2022-11-15T07:02:59;31;31;
32503;PMS5003;18953;45.930;13.640;2022-11-15T07:08:16;29;27;
32503;PMS5003;18953;45.930;13.640;2022-11-15T07:13:33;27;26;
32503;PMS5003;18953;45.930;13.640;2022-11-15T07:18:50;27;26;
32503;PMS5003;18953;45.930;13.640;2022-11-15T07:24:06;29;25;
32503;PMS5003;18953;45.930;13.640;2022-11-15T07:29:23;26;24;
32503;PMS5003;18953;45.930;13.640;2022-11-15T07:34:40;23;23;
32503;PMS5003;18953;45.930;13.640;2022-11-15T07:39:57;25;23;
32503;PMS5003;18953;45.930;13.640;2022-11-15T07:45:13;23;22;
32503;PMS5003;18953;45.930;13.640;2022-11-15T07:50:30;24;22;
32503;PMS5003;18953;45.930;13.640;2022-11-15T07:55:46;22;20;
32503;PMS5003;18953;45.930;13.640;2022-11-15T08:01:04;24;21;
32503;PMS5003;18953;45.930;13.640;2022-11-15T08:06:21;24;22;
32503;PMS5003;18953;45.930;13.640;2022-11-15T08:11:37;24;22;
32503;PMS5003;18953;45.930;13.640;2022-11-15T08:16:54;24;21;
32503;PMS5003;18953;45.930;13.640;2022-11-15T08:22:10;22;20;
32503;PMS5003;18953;45.930;13.640;2022-11-15T08:27:27;22;18;
32503;PMS5003;18953;45.930;13.640;2022-11-15T08:32:43;19;17;
32503;PMS5003;18953;45.930;13.640;2022-11-15T08:37:59;18;18;
32503;PMS5003;18953;45.930;13.640;2022-11-15T08:43:16;18;16;
32503;PMS5003;18953;45.930;13.640;2022-11-15T08:48:32;16;16;
32503;PMS5003;18953;45.930;13.640;2022-11-15T08:53:49;17;16;
32503;PMS5003;18953;45.930;13.640;2022-11-15T08:59:05;16;16;
32503;PMS5003;18953;45.930;13.640;2022-11-15T09:04:22;14;13;
32503;PMS5003;18953;45.930;13.640;2022-11-15T09:09:39;14;14;
32503;PMS5003;18953;45.930;13.640;2022-11-15T09:14:55;15;14;
32503;PMS5003;18953;45.930;13.640;2022-11-15T09:20:12;15;13;
32503;PMS5003;18953;45.930;13.640;2022-11-15T09:25:28;15;14;
32503;PMS5003;18953;45.930;13.640;2022-11-15T09:30:45;15;14;
32503;PMS5003;18953;45.930;13.640;2022-11-15T09:36:02;13;12;
32503;PMS5003;18953;45.930;13.640;2022-11-15T09:41:22;15;13;
32503;PMS5003;18953;45.930;13.640;2022-11-15T09:46:37;18;15;
32503;PMS5003;18953;45.930;13.640;2022-11-15T09:51:51;16;13;
32503;PMS5003;18953;45.930;13.640;2022-11-15T09:57:10;12;11;
32503;PMS5003;18953;45.930;13.640;2022-11-15T10:02:41;13;11;
32503;PMS5003;18953;45.930;13.640;2022-11-15T10:07:44;13;11;
32503;PMS5003;18953;45.930;13.640;2022-11-15T10:12:58;12;11;
32503;PMS5003;18953;45.930;13.640;2022-11-15T10:18:15;11;10;
32503;PMS5003;18953;45.930;13.640;2022-11-15T10:23:31;11;11;
32503;PMS5003;18953;45.930;13.640;2022-11-15T10:28:47;12;12;
32503;PMS5003;18953;45.930;13.640;2022-11-15T10:34:12;15;14;
32503;PMS5003;18953;45.930;13.640;2022-11-15T10:39:20;14;13;
32503;PMS5003;18953;45.930;13.640;2022-11-15T10:44:41;14;13;
32503;PMS5003;18953;45.930;13.640;2022-11-15T10:49:56;15;14;
32503;PMS5003;18953;45.930;13.640;2022-11-15T10:55:20;15;13;
32503;PMS5003;18953;45.930;13.640;2022-11-15T11:00:29;16;14;
32503;PMS5003;18953;45.930;13.640;2022-11-15T11:05:44;15;14;
32503;PMS5003;18953;45.930;13.640;2022-11-15T11:11:03;14;12;
32503;PMS5003;18953;45.930;13.640;2022-11-15T11:16:22;15;13;
32503;PMS5003;18953;45.930;13.640;2022-11-15T11:21:38;14;12;
32503;PMS5003;18953;45.930;13.640;2022-11-15T11:26:57;12;11;
32503;PMS5003;18953;45.930;13.640;2022-11-15T11:32:13;13;13;
32503;PMS5003;18953;45.930;13.640;2022-11-15T11:37:28;13;12;
32503;PMS5003;18953;45.930;13.640;2022-11-15T11:42:43;12;10;
32503;PMS5003;18953;45.930;13.640;2022-11-15T11:47:59;12;12;
32503;PMS5003;18953;45.930;13.640;2022-11-15T11:53:15;12;12;
32503;PMS5003;18953;45.930;13.640;2022-11-15T11:58:33;11;11;
32503;PMS5003;18953;45.930;13.640;2022-11-15T12:03:47;10;8;
32503;PMS5003;18953;45.930;13.640;2022-11-15T12:09:04;9;8;
32503;PMS5003;18953;45.930;13.640;2022-11-15T12:14:23;8;8;
32503;PMS5003;18953;45.930;13.640;2022-11-15T12:19:36;9;8;
32503;PMS5003;18953;45.930;13.640;2022-11-15T12:24:54;9;9;
32503;PMS5003;18953;45.930;13.640;2022-11-15T12:30:11;9;8;
32503;PMS5003;18953;45.930;13.640;2022-11-15T12:35:27;10;9;
32503;PMS5003;18953;45.930;13.640;2022-11-15T12:41:12;9;9;
32503;PMS5003;18953;45.930;13.640;2022-11-15T12:46:01;12;10;
32503;PMS5003;18953;45.930;13.640;2022-11-15T12:51:15;11;10;
32503;PMS5003;18953;45.930;13.640;2022-11-15T12:56:31;11;10;
32503;PMS5003;18953;45.930;13.640;2022-11-15T13:01:55;9;9;
32503;PMS5003;18953;45.930;13.640;2022-11-15T13:07:05;10;8;
32503;PMS5003;18953;45.930;13.640;2022-11-15T13:12:54;10;9;
32503;PMS5003;18953;45.930;13.640;2022-11-15T13:17:37;10;10;
32503;PMS5003;18953;45.930;13.640;2022-11-15T13:22:59;9;8;
32503;PMS5003;18953;45.930;13.640;2022-11-15T13:28:10;10;9;
32503;PMS5003;18953;45.930;13.640;2022-11-15T13:33:28;12;11;
32503;PMS5003;18953;45.930;13.640;2022-11-15T13:38:43;10;9;
32503;PMS5003;18953;45.930;13.640;2022-11-15T13:44:00;10;10;
32503;PMS5003;18953;45.930;13.640;2022-11-15T13:49:16;12;11;
32503;PMS5003;18953;45.930;13.640;2022-11-15T13:54:33;14;13;
32503;PMS5003;18953;45.930;13.640;2022-11-15T13:59:49;15;14;
32503;PMS5003;18953;45.930;13.640;2022-11-15T14:05:11;11;10;
32503;PMS5003;18953;45.930;13.640;2022-11-15T14:10:27;14;14;
32503;PMS5003;18953;45.930;13.640;2022-11-15T14:15:39;16;15;
32503;PMS5003;18953;45.930;13.640;2022-11-15T14:21:04;15;15;
32503;PMS5003;18953;45.930;13.640;2022-11-15T14:26:25;17;15;
32503;PMS5003;18953;45.930;13.640;2022-11-15T14:31:28;19;16;
32503;PMS5003;18953;45.930;13.640;2022-11-15T14:36:45;19;18;
32503;PMS5003;18953;45.930;13.640;2022-11-15T14:42:01;19;18;
32503;PMS5003;18953;45.930;13.640;2022-11-15T14:47:18;23;20;
32503;PMS5003;18953;45.930;13.640;2022-11-15T14:52:34;21;18;
32503;PMS5003;18953;45.930;13.640;2022-11-15T14:57:51;20;18;
32503;PMS5003;18953;45.930;13.640;2022-11-15T15:03:07;23;20;
32503;PMS5003;18953;45.930;13.640;2022-11-15T15:08:24;21;20;
32503;PMS5003;18953;45.930;13.640;2022-11-15T15:13:41;23;22;
32503;PMS5003;18953;45.930;13.640;2022-11-15T15:18:58;26;25;
32503;PMS5003;18953;45.930;13.640;2022-11-15T15:24:14;27;24;
32503;PMS5003;18953;45.930;13.640;2022-11-15T15:29:31;31;26;
32503;PMS5003;18953;45.930;13.640;2022-11-15T15:34:47;32;28;
32503;PMS5003;18953;45.930;13.640;2022-11-15T15:40:08;27;26;
32503;PMS5003;18953;45.930;13.640;2022-11-15T15:45:20;31;26;
32503;PMS5003;18953;45.930;13.640;2022-11-15T15:50:37;31;29;
32503;PMS5003;18953;45.930;13.640;2022-11-15T15:55:53;30;29;
32503;PMS5003;18953;45.930;13.640;2022-11-15T16:01:10;31;29;
32503;PMS5003;18953;45.930;13.640;2022-11-15T16:06:35;28;28;
32503;PMS5003;18953;45.930;13.640;2022-11-15T16:11:44;32;28;
32503;PMS5003;18953;45.930;13.640;2022-11-15T16:16:59;34;30;
32503;PMS5003;18953;45.930;13.640;2022-11-15T16:22:16;33;29;
32503;PMS5003;18953;45.930;13.640;2022-11-15T16:27:32;35;30;
32503;PMS5003;18953;45.930;13.640;2022-11-15T16:32:49;41;34;
32503;PMS5003;18953;45.930;13.640;2022-11-15T16:38:06;48;39;
32503;PMS5003;18953;45.930;13.640;2022-11-15T16:43:22;52;39;
32503;PMS5003;18953;45.930;13.640;2022-11-15T16:48:38;50;41;
32503;PMS5003;18953;45.930;13.640;2022-11-15T16:53:54;54;42;
32503;PMS5003;18953;45.930;13.640;2022-11-15T16:59:13;55;42;
32503;PMS5003;18953;45.930;13.640;2022-11-15T17:04:28;55;43;
32503;PMS5003;18953;45.930;13.640;2022-11-15T17:09:45;58;45;
32503;PMS5003;18953;45.930;13.640;2022-11-15T17:15:02;55;45;
32503;PMS5003;18953;45.930;13.640;2022-11-15T17:20:19;54;44;
32503;PMS5003;18953;45.930;13.640;2022-11-15T17:25:35;56;45;
32503;PMS5003;18953;45.930;13.640;2022-11-15T17:30:51;59;47;
32503;PMS5003;18953;45.930;13.640;2022-11-15T17:36:09;58;47;
32503;PMS5003;18953;45.930;13.640;2022-11-15T17:41:26;59;48;
32503;PMS5003;18953;45.930;13.640;2022-11-15T17:46:42;60;48;
32503;PMS5003;18953;45.930;13.640;2022-11-15T17:51:58;60;47;
32503;PMS5003;18953;45.930;13.640;2022-11-15T17:57:15;58;46;
32503;PMS5003;18953;45.930;13.640;2022-11-15T18:02:31;59;47;
32503;PMS5003;18953;45.930;13.640;2022-11-15T18:07:48;58;46;
32503;PMS5003;18953;45.930;13.640;2022-11-15T18:13:05;60;47;
32503;PMS5003;18953;45.930;13.640;2022-11-15T18:18:22;61;48;
32503;PMS5003;18953;45.930;13.640;2022-11-15T18:23:39;58;46;
32503;PMS5003;18953;45.930;13.640;2022-11-15T18:28:57;55;45;
32503;PMS5003;18953;45.930;13.640;2022-11-15T18:34:12;52;43;
32503;PMS5003;18953;45.930;13.640;2022-11-15T18:39:29;53;42;
32503;PMS5003;18953;45.930;13.640;2022-11-15T18:44:45;48;40;
32503;PMS5003;18953;45.930;13.640;2022-11-15T18:50:02;47;40;
32503;PMS5003;18953;45.930;13.640;2022-11-15T18:55:18;45;38;
32503;PMS5003;18953;45.930;13.640;2022-11-15T19:00:35;50;41;
32503;PMS5003;18953;45.930;13.640;2022-11-15T19:05:51;49;41;
32503;PMS5003;18953;45.930;13.640;2022-11-15T19:11:09;52;41;
32503;PMS5003;18953;45.930;13.640;2022-11-15T19:16:25;48;40;
32503;PMS5003;18953;45.930;13.640;2022-11-15T19:21:41;52;41;
32503;PMS5003;18953;45.930;13.640;2022-11-15T19:26:57;52;42;
32503;PMS5003;18953;45.930;13.640;2022-11-15T19:32:14;56;44;
32503;PMS5003;18953;45.930;13.640;2022-11-15T19:37:30;58;46;
32503;PMS5003;18953;45.930;13.640;2022-11-15T19:42:47;52;44;
32503;PMS5003;18953;45.930;13.640;2022-11-15T19:48:04;55;44;
32503;PMS5003;18953;45.930;13.640;2022-11-15T19:53:22;54;44;
32503;PMS5003;18953;45.930;13.640;2022-11-15T19:58:37;57;44;
32503;PMS5003;18953;45.930;13.640;2022-11-15T20:03:54;53;44;
32503;PMS5003;18953;45.930;13.640;2022-11-15T20:09:10;48;40;
32503;PMS5003;18953;45.930;13.640;2022-11-15T20:14:26;47;40;
32503;PMS5003;18953;45.930;13.640;2022-11-15T20:19:43;50;41;
32503;PMS5003;18953;45.930;13.640;2022-11-15T20:25:00;52;43;
32503;PMS5003;18953;45.930;13.640;2022-11-15T20:30:17;56;45;
32503;PMS5003;18953;45.930;13.640;2022-11-15T20:35:35;57;45;
32503;PMS5003;18953;45.930;13.640;2022-11-15T20:40:52;56;46;
32503;PMS5003;18953;45.930;13.640;2022-11-15T20:46:09;56;45;
32503;PMS5003;18953;45.930;13.640;2022-11-15T20:51:25;60;48;
32503;PMS5003;18953;45.930;13.640;2022-11-15T20:56:42;56;44;
32503;PMS5003;18953;45.930;13.640;2022-11-15T21:01:59;58;47;
32503;PMS5003;18953;45.930;13.640;2022-11-15T21:12:32;55;45;
32503;PMS5003;18953;45.930;13.640;2022-11-15T21:17:49;58;46;
32503;PMS5003;18953;45.930;13.640;2022-11-15T21:23:05;56;45;
32503;PMS5003;18953;45.930;13.640;2022-11-15T21:28:22;57;47;
32503;PMS5003;18953;45.930;13.640;2022-11-15T21:33:38;57;46;
32503;PMS5003;18953;45.930;13.640;2022-11-15T21:38:55;57;45;
32503;PMS5003;18953;45.930;13.640;2022-11-15T21:44:11;58;46;
32503;PMS5003;18953;45.930;13.640;2022-11-15T21:49:28;62;48;
32503;PMS5003;18953;45.930;13.640;2022-11-15T21:54:46;62;49;
32503;PMS5003;18953;45.930;13.640;2022-11-15T22:00:02;62;49;
32503;PMS5003;18953;45.930;13.640;2022-11-15T22:05:19;60;46;
32503;PMS5003;18953;45.930;13.640;2022-11-15T22:10:36;59;47;
32503;PMS5003;18953;45.930;13.640;2022-11-15T22:15:53;58;46;
32503;PMS5003;18953;45.930;13.640;2022-11-15T22:21:11;54;44;
32503;PMS5003;18953;45.930;13.640;2022-11-15T22:26:26;55;44;
32503;PMS5003;18953;45.930;13.640;2022-11-15T22:31:43;55;44;
32503;PMS5003;18953;45.930;13.640;2022-11-15T22:37:00;52;42;
32503;PMS5003;18953;45.930;13.640;2022-11-15T22:42:17;52;41;
32503;PMS5003;18953;45.930;13.640;2022-11-15T22:47:33;54;41;
32503;PMS5003;18953;45.930;13.640;2022-11-15T22:52:50;51;42;
32503;PMS5003;18953;45.930;13.640;2022-11-15T22:58:07;54;43;
32503;PMS5003;18953;45.930;13.640;2022-11-15T23:03:24;53;40;
32503;PMS5003;18953;45.930;13.640;2022-11-15T23:08:40;54;44;
32503;PMS5003;18953;45.930;13.640;2022-11-15T23:13:57;51;40;
32503;PMS5003;18953;45.930;13.640;2022-11-15T23:19:13;51;41;
32503;PMS5003;18953;45.930;13.640;2022-11-15T23:24:30;48;38;
32503;PMS5003;18953;45.930;13.640;2022-11-15T23:29:46;49;38;
32503;PMS5003;18953;45.930;13.640;2022-11-15T23:35:03;51;39;
32503;PMS5003;18953;45.930;13.640;2022-11-15T23:40:19;49;39;
32503;PMS5003;18953;45.930;13.640;2022-11-15T23:45:36;49;38;
32503;PMS5003;18953;45.930;13.640;2022-11-15T23:50:52;48;38;
32503;PMS5003;18953;45.930;13.640;2022-11-15T23:56:10;46;37;
